createdAt,value
2023-09-04T00:02:21.791Z,101088.37
2023-09-04T00:05:23.580Z,101088.44
2023-09-04T00:08:26.313Z,101089.19
2023-09-04T00:11:28.517Z,101084.78
2023-09-04T00:14:30.272Z,101089.19
2023-09-04T00:17:32.446Z,101089.06
2023-09-04T00:20:34.150Z,101089.97
2023-09-04T00:23:35.852Z,101093.31
2023-09-04T00:26:37.574Z,101095.28
2023-09-04T00:29:39.354Z,101094.97
2023-09-04T00:32:41.230Z,101096.78
2023-09-04T00:35:43.033Z,101104.69
2023-09-04T00:38:44.677Z,101101.16
2023-09-04T00:41:47.330Z,101094.97
2023-09-04T00:44:51.340Z,101107.06
2023-09-04T00:47:53.566Z,101108.66
2023-09-04T00:50:55.369Z,101107.28
2023-09-04T00:53:57.317Z,101101.09
2023-09-04T00:56:59.046Z,101093.19
2023-09-04T01:00:06.717Z,101094.00
2023-09-04T01:03:09.298Z,101094.81
2023-09-04T01:06:11.058Z,101091.50
2023-09-04T01:09:12.867Z,101087.75
2023-09-04T01:12:25.626Z,101097.41
2023-09-04T01:15:28.958Z,101086.72
2023-09-04T01:18:31.302Z,101085.81
2023-09-04T01:21:39.639Z,101088.94
2023-09-04T01:24:41.445Z,101086.28
2023-09-04T01:27:50.080Z,101081.03
2023-09-04T01:31:02.157Z,101083.66
2023-09-04T01:34:11.141Z,101074.06
2023-09-04T01:37:13.388Z,101079.88
2023-09-04T01:40:15.189Z,101082.56
2023-09-04T01:43:16.891Z,101076.34
2023-09-04T01:46:18.737Z,101082.34
2023-09-04T01:49:20.538Z,101083.88
2023-09-04T01:52:22.246Z,101091.91
2023-09-04T01:55:23.908Z,101085.75
2023-09-04T01:58:26.183Z,101091.09
2023-09-04T02:01:29.313Z,101097.28
2023-09-04T02:04:33.156Z,101083.31
2023-09-04T02:07:34.918Z,101086.03
2023-09-04T02:10:36.863Z,101080.63
2023-09-04T02:13:38.522Z,101086.69
2023-09-04T02:16:40.195Z,101091.19
2023-09-04T02:19:42.024Z,101096.25
2023-09-04T02:22:43.818Z,101082.25
2023-09-04T02:25:48.301Z,101097.84
2023-09-04T02:28:50.007Z,101103.94
2023-09-04T02:31:51.782Z,101106.31
2023-09-04T02:34:53.700Z,101105.50
2023-09-04T02:37:55.408Z,101091.63
2023-09-04T02:40:57.335Z,101093.31
2023-09-04T02:43:58.979Z,101101.31
2023-09-04T02:47:00.666Z,101095.00
2023-09-04T02:50:02.475Z,101099.28
2023-09-04T02:53:04.459Z,101102.94
2023-09-04T02:56:06.235Z,101103.03
2023-09-04T02:59:07.904Z,101110.00
2023-09-04T03:02:10.055Z,101108.44
2023-09-04T03:05:12.086Z,101102.38
2023-09-04T03:08:14.119Z,101109.34
2023-09-04T03:11:15.904Z,101118.37
2023-09-04T03:14:17.612Z,101117.47
2023-09-04T03:17:19.569Z,101114.03
2023-09-04T03:20:21.427Z,101106.81
2023-09-04T03:23:23.145Z,101099.94
2023-09-04T03:26:24.865Z,101108.59
2023-09-04T03:29:27.454Z,101111.94
2023-09-04T03:32:29.747Z,101116.94
2023-09-04T03:35:31.440Z,101116.22
2023-09-04T03:38:33.312Z,101120.47
2023-09-04T03:41:35.038Z,101119.50
2023-09-04T03:44:36.799Z,101114.97
2023-09-04T03:47:38.534Z,101122.00
2023-09-04T03:50:40.477Z,101118.25
2023-09-04T03:53:42.440Z,101124.25
2023-09-04T03:56:44.551Z,101123.28
2023-09-04T03:59:46.226Z,101122.88
2023-09-04T04:02:50.486Z,101122.88
2023-09-04T04:05:52.369Z,101119.56
2023-09-04T04:08:57.133Z,101120.41
2023-09-04T04:11:59.002Z,101131.59
2023-09-04T04:15:05.766Z,101131.56
2023-09-04T04:18:09.611Z,101136.91
2023-09-04T04:21:11.524Z,101137.47
2023-09-04T04:24:13.801Z,101134.12
2023-09-04T04:27:27.508Z,101140.09
2023-09-04T04:30:41.385Z,101130.59
2023-09-04T04:33:55.553Z,101143.88
2023-09-04T04:37:09.758Z,101141.50
2023-09-04T04:40:11.800Z,101139.13
2023-09-04T04:43:25.570Z,101150.03
2023-09-04T04:46:39.637Z,101143.22
2023-09-04T04:49:53.511Z,101152.16
2023-09-04T04:53:07.644Z,101149.22
2023-09-04T04:56:30.702Z,101146.19
2023-09-04T04:59:44.812Z,101151.91
2023-09-04T05:02:58.729Z,101163.75
2023-09-04T05:06:12.468Z,101151.78
2023-09-04T05:09:27.292Z,101147.78
2023-09-04T05:12:39.758Z,101153.00
2023-09-04T05:15:53.614Z,101148.59
2023-09-04T05:19:08.694Z,101151.41
2023-09-04T05:22:22.691Z,101153.69
2023-09-04T05:25:36.994Z,101153.81
2023-09-04T05:28:49.818Z,101156.38
2023-09-04T05:32:17.269Z,101153.19
2023-09-04T05:35:33.766Z,101146.41
2023-09-04T05:38:58.997Z,101157.16
2023-09-04T05:49:00.129Z,101149.22
2023-09-04T05:52:16.575Z,101149.50
2023-09-04T05:55:18.361Z,101150.97
2023-09-04T05:58:35.984Z,101158.44
2023-09-04T06:01:49.482Z,101152.53
2023-09-04T06:04:51.165Z,101143.13
2023-09-04T06:07:52.916Z,101148.56
2023-09-04T06:10:55.720Z,101148.87
2023-09-04T06:13:57.365Z,101147.56
2023-09-04T06:17:00.090Z,101161.12
2023-09-04T06:20:01.943Z,101155.31
2023-09-04T06:23:04.466Z,101155.37
2023-09-04T06:26:06.276Z,101153.75
2023-09-04T06:29:07.962Z,101156.56
2023-09-04T06:32:09.701Z,101146.44
2023-09-04T06:35:11.374Z,101142.56
2023-09-04T06:38:14.076Z,101140.25
2023-09-04T06:41:15.765Z,101140.69
2023-09-04T06:44:20.354Z,101139.91
2023-09-04T06:47:22.091Z,101139.06
2023-09-04T06:50:23.761Z,101147.88
2023-09-04T06:53:25.422Z,101139.91
2023-09-04T06:56:27.082Z,101144.16
2023-09-04T06:59:28.898Z,101137.88
2023-09-04T07:02:30.630Z,101137.47
2023-09-04T07:05:32.719Z,101140.47
2023-09-04T07:08:34.539Z,101138.00
2023-09-04T07:11:36.290Z,101137.41
2023-09-04T07:14:39.425Z,101152.00
2023-09-04T07:17:41.216Z,101160.91
2023-09-04T07:20:43.009Z,101151.31
2023-09-04T07:23:44.754Z,101154.25
2023-09-04T07:26:46.497Z,101150.78
2023-09-04T07:29:48.425Z,101155.81
2023-09-04T07:32:50.298Z,101156.91
2023-09-04T07:35:56.036Z,101159.72
2023-09-04T07:38:57.916Z,101157.94
2023-09-04T07:41:59.605Z,101176.78
2023-09-04T07:45:01.339Z,101167.97
2023-09-04T07:48:03.819Z,101162.63
2023-09-04T07:51:13.670Z,101168.72
2023-09-04T07:54:22.702Z,101169.09
2023-09-04T07:57:24.621Z,101178.06
2023-09-04T08:00:27.185Z,101186.53
2023-09-04T08:03:29.155Z,101181.34
2023-09-04T08:06:31.073Z,101181.12
2023-09-04T08:09:32.768Z,101176.97
2023-09-04T08:12:34.429Z,101189.63
2023-09-04T08:15:36.198Z,101187.50
2023-09-04T08:18:37.888Z,101188.09
2023-09-04T08:21:39.935Z,101180.97
2023-09-04T08:24:41.592Z,101202.25
2023-09-04T08:27:43.248Z,101192.19
2023-09-04T08:30:44.989Z,101205.31
2023-09-04T08:33:46.717Z,101191.44
2023-09-04T08:36:48.422Z,101203.69
2023-09-04T08:39:50.271Z,101180.62
2023-09-04T08:42:53.518Z,101179.16
2023-09-04T08:45:55.524Z,101174.88
2023-09-04T08:49:01.356Z,101179.16
2023-09-04T08:52:03.363Z,101185.66
2023-09-04T08:55:06.439Z,101181.66
2023-09-04T08:58:08.486Z,101185.97
2023-09-04T09:01:13.899Z,101182.59
2023-09-04T09:04:18.190Z,101187.16
2023-09-04T09:07:24.496Z,101185.78
2023-09-04T09:10:26.498Z,101191.69
2023-09-04T09:13:28.269Z,101195.00
2023-09-04T09:16:29.975Z,101197.09
2023-09-04T09:19:35.977Z,101199.81
2023-09-04T09:22:37.657Z,101197.88
2023-09-04T09:25:40.469Z,101191.03
2023-09-04T09:28:45.780Z,101191.09
2023-09-04T09:31:48.080Z,101186.53
2023-09-04T09:34:55.320Z,101180.81
2023-09-04T09:37:57.007Z,101179.97
2023-09-04T09:40:59.586Z,101179.00
2023-09-04T09:44:03.413Z,101184.50
2023-09-04T09:47:14.387Z,101180.50
2023-09-04T09:50:16.634Z,101189.87
2023-09-04T09:53:20.398Z,101183.13
2023-09-04T09:56:22.546Z,101175.75
2023-09-04T09:59:24.707Z,101177.22
2023-09-04T10:02:28.562Z,101176.78
2023-09-04T10:05:31.992Z,101186.97
2023-09-04T10:08:50.903Z,101174.22
2023-09-04T10:12:03.751Z,101176.31
2023-09-04T10:15:07.500Z,101174.25
2023-09-04T10:18:15.503Z,101182.81
2023-09-04T10:21:20.564Z,101188.28
2023-09-04T10:24:31.430Z,101172.59
2023-09-04T10:27:41.457Z,101179.16
2023-09-04T10:30:45.449Z,101183.25
2023-09-04T10:33:47.377Z,101178.03
2023-09-04T10:36:49.702Z,101182.53
2023-09-04T10:39:55.371Z,101183.09
2023-09-04T10:43:05.008Z,101166.66
2023-09-04T10:46:11.827Z,101191.62
2023-09-04T10:49:31.334Z,101179.25
2023-09-04T10:52:45.087Z,101176.69
2023-09-04T10:56:15.551Z,101178.72
2023-09-04T10:59:17.212Z,101178.88
2023-09-04T11:02:29.074Z,101183.19
2023-09-04T11:05:31.050Z,101167.16
2023-09-04T11:08:34.439Z,101172.22
2023-09-04T11:11:37.065Z,101170.78
2023-09-04T11:14:49.811Z,101179.50
2023-09-04T11:17:52.012Z,101177.06
2023-09-04T11:20:55.986Z,101163.59
2023-09-04T11:23:59.416Z,101165.00
2023-09-04T11:27:01.064Z,101158.75
2023-09-04T11:30:03.255Z,101163.25
2023-09-04T11:33:05.642Z,101154.19
2023-09-04T11:36:08.055Z,101158.91
2023-09-04T11:39:14.082Z,101162.97
2023-09-04T11:42:21.020Z,101164.72
2023-09-04T11:45:25.908Z,101147.94
2023-09-04T11:48:29.216Z,101159.28
2023-09-04T11:51:32.838Z,101156.69
2023-09-04T11:54:37.570Z,101138.72
2023-09-04T11:57:39.353Z,101142.09
2023-09-04T12:00:41.535Z,101154.72
2023-09-04T12:03:43.348Z,101151.06
2023-09-04T12:06:45.154Z,101147.97
2023-09-04T12:09:47.001Z,101139.97
2023-09-04T12:12:48.769Z,101134.72
2023-09-04T12:15:50.466Z,101129.88
2023-09-04T12:18:52.208Z,101127.88
2023-09-04T12:21:53.870Z,101140.09
2023-09-04T12:25:06.491Z,101135.72
2023-09-04T12:28:10.985Z,101136.69
2023-09-04T12:31:14.209Z,101126.25
2023-09-04T12:34:16.590Z,101134.25
2023-09-04T12:37:21.374Z,101134.94
2023-09-04T12:40:23.038Z,101124.22
2023-09-04T12:43:24.709Z,101123.44
2023-09-04T12:46:26.350Z,101111.97
2023-09-04T12:49:31.299Z,101113.56
2023-09-04T12:52:35.203Z,101118.84
2023-09-04T12:55:36.902Z,101111.44
2023-09-04T12:58:38.547Z,101107.75
2023-09-04T13:01:40.292Z,101111.91
2023-09-04T13:04:42.067Z,101109.19
2023-09-04T13:07:44.270Z,101104.84
2023-09-04T13:10:45.942Z,101106.62
2023-09-04T13:13:47.644Z,101097.75
2023-09-04T13:16:49.296Z,101093.63
2023-09-04T13:19:51.053Z,101100.81
2023-09-04T13:22:53.008Z,101093.25
2023-09-04T13:25:54.695Z,101096.00
2023-09-04T13:28:56.422Z,101093.34
2023-09-04T13:31:58.105Z,101092.56
2023-09-04T13:34:59.790Z,101096.62
2023-09-04T13:38:01.574Z,101095.81
2023-09-04T13:41:03.979Z,101091.72
2023-09-04T13:44:05.872Z,101089.53
2023-09-04T13:47:07.554Z,101090.38
2023-09-04T13:50:10.333Z,101087.94
2023-09-04T13:53:12.006Z,101087.53
2023-09-04T13:56:13.643Z,101085.19
2023-09-04T13:59:15.310Z,101086.09
2023-09-04T14:02:17.638Z,101077.66
2023-09-04T14:05:19.424Z,101075.59
2023-09-04T14:08:21.143Z,101078.22
2023-09-04T14:11:22.842Z,101080.25
2023-09-04T14:14:26.232Z,101072.31
2023-09-04T14:17:27.959Z,101063.31
2023-09-04T14:20:29.686Z,101077.47
2023-09-04T14:23:31.353Z,101083.88
2023-09-04T14:26:33.045Z,101077.34
2023-09-04T14:29:34.699Z,101073.50
2023-09-04T14:32:36.468Z,101063.06
2023-09-04T14:35:38.435Z,101066.25
2023-09-04T14:38:41.216Z,101074.91
2023-09-04T14:41:42.879Z,101081.00
2023-09-04T14:44:45.792Z,101087.28
2023-09-04T14:47:47.710Z,101085.19
2023-09-04T14:50:49.345Z,101079.38
2023-09-04T14:53:53.173Z,101090.81
2023-09-04T14:56:54.851Z,101088.25
2023-09-04T14:59:57.423Z,101094.84
2023-09-04T15:02:59.290Z,101095.75
2023-09-04T15:06:01.835Z,101101.78
2023-09-04T15:09:03.545Z,101099.00
2023-09-04T15:12:06.375Z,101094.28
2023-09-04T15:15:08.616Z,101095.28
2023-09-04T15:18:10.402Z,101091.37
2023-09-04T15:21:12.230Z,101096.00
2023-09-04T15:24:14.197Z,101107.84
2023-09-04T15:27:18.245Z,101106.62
2023-09-04T15:30:20.271Z,101100.94
2023-09-04T15:33:22.122Z,101099.03
2023-09-04T15:36:23.824Z,101109.94
2023-09-04T15:39:25.819Z,101102.72
2023-09-04T15:42:27.687Z,101100.69
2023-09-04T15:45:29.872Z,101102.31
2023-09-04T15:48:31.723Z,101107.72
2023-09-04T15:51:33.588Z,101107.87
2023-09-04T15:54:35.279Z,101104.47
2023-09-04T15:57:37.012Z,101117.72
2023-09-04T16:00:39.182Z,101111.78
2023-09-04T16:03:40.954Z,101111.03
2023-09-04T16:06:43.034Z,101114.66
2023-09-04T16:09:45.051Z,101114.63
2023-09-04T16:12:46.888Z,101108.37
2023-09-04T16:15:48.965Z,101118.28
2023-09-04T16:18:51.030Z,101122.84
2023-09-04T16:21:52.924Z,101126.59
2023-09-04T16:24:58.674Z,101124.78
2023-09-04T16:28:00.876Z,101122.34
2023-09-04T16:31:03.064Z,101126.66
2023-09-04T16:34:06.058Z,101129.47
2023-09-04T16:37:07.772Z,101124.91
2023-09-04T16:40:13.274Z,101132.94
2023-09-04T16:43:15.360Z,101126.06
2023-09-04T16:46:17.593Z,101127.03
2023-09-04T16:49:19.297Z,101127.91
2023-09-04T16:52:21.274Z,101132.41
2023-09-04T16:55:23.705Z,101127.09
2023-09-04T16:58:26.933Z,101125.34
2023-09-04T17:01:29.636Z,101138.66
2023-09-04T17:04:31.846Z,101149.37
2023-09-04T17:07:34.974Z,101151.19
2023-09-04T17:10:36.693Z,101148.63
2023-09-04T17:13:38.435Z,101146.03
2023-09-04T17:16:40.710Z,101150.44
2023-09-04T17:19:42.600Z,101157.47
2023-09-04T17:22:44.557Z,101151.38
2023-09-04T17:25:47.900Z,101156.72
2023-09-04T17:28:50.178Z,101162.84
2023-09-04T17:31:55.250Z,101166.47
2023-09-04T17:34:58.623Z,101165.56
2023-09-04T17:38:01.286Z,101164.69
2023-09-04T17:41:08.269Z,101167.31
2023-09-04T17:44:10.462Z,101171.72
2023-09-04T17:47:12.383Z,101172.63
2023-09-04T17:50:14.404Z,101173.50
2023-09-04T17:53:16.891Z,101178.81
2023-09-04T17:56:20.840Z,101180.56
2023-09-04T17:59:23.185Z,101182.31
2023-09-04T18:02:25.785Z,101183.16
2023-09-04T18:05:27.916Z,101191.16
2023-09-04T18:08:31.456Z,101189.34
2023-09-04T18:11:33.580Z,101184.88
2023-09-04T18:14:35.814Z,101194.53
2023-09-04T18:17:38.293Z,101185.72
2023-09-04T18:20:40.678Z,101198.00
2023-09-04T18:23:44.162Z,101198.06
2023-09-04T18:26:46.233Z,101195.31
2023-09-04T18:29:49.077Z,101197.97
2023-09-04T18:32:51.868Z,101201.53
2023-09-04T18:35:55.484Z,101203.22
2023-09-04T18:38:58.073Z,101200.59
2023-09-04T18:42:00.591Z,101202.41
2023-09-04T18:45:05.302Z,101197.97
2023-09-04T18:48:09.245Z,101198.84
2023-09-04T18:51:11.683Z,101198.84
2023-09-04T18:54:14.169Z,101206.75
2023-09-04T18:57:19.302Z,101204.06
2023-09-04T19:00:23.337Z,101198.69
2023-09-04T19:03:26.510Z,101212.81
2023-09-04T19:06:31.487Z,101209.19
2023-09-04T19:09:34.471Z,101206.56
2023-09-04T19:12:36.962Z,101213.44
2023-09-04T19:15:38.737Z,101218.72
2023-09-04T19:18:41.604Z,101217.78
2023-09-04T19:21:45.167Z,101219.53
2023-09-04T19:24:50.100Z,101221.19
2023-09-04T19:27:53.695Z,101225.50
2023-09-04T19:30:56.384Z,101221.13
2023-09-04T19:34:00.519Z,101235.06
2023-09-04T19:37:04.444Z,101227.97
2023-09-04T19:40:08.679Z,101232.22
2023-09-04T19:43:11.253Z,101236.56
2023-09-04T19:46:15.011Z,101233.97
2023-09-04T19:49:17.207Z,101234.94
2023-09-04T19:52:19.323Z,101239.31
2023-09-04T19:55:21.488Z,101234.84
2023-09-04T19:58:23.715Z,101235.78
2023-09-04T20:01:27.584Z,101228.59
2023-09-04T20:04:29.827Z,101237.13
2023-09-04T20:07:32.978Z,101233.78
2023-09-04T20:10:36.847Z,101233.75
2023-09-04T20:13:39.144Z,101226.47
2023-09-04T20:16:41.605Z,101233.22
2023-09-04T20:19:43.579Z,101231.38
2023-09-04T20:22:46.051Z,101224.03
2023-09-04T20:25:48.543Z,101223.06
2023-09-04T20:28:55.346Z,101219.50
2023-09-04T20:31:58.994Z,101217.91
2023-09-04T20:35:01.076Z,101221.56
2023-09-04T20:38:02.826Z,101215.47
2023-09-04T20:41:05.113Z,101220.75
2023-09-04T20:44:07.401Z,101226.06
2023-09-04T20:47:09.263Z,101228.66
2023-09-04T20:50:10.991Z,101228.66
2023-09-04T20:53:15.134Z,101232.75
2023-09-04T20:56:17.276Z,101233.69
2023-09-04T20:59:19.092Z,101231.09
2023-09-04T21:02:20.982Z,101227.19
2023-09-04T21:05:22.704Z,101234.25
2023-09-04T21:08:24.296Z,101229.06
2023-09-04T21:11:25.951Z,101229.69
2023-09-04T21:14:46.193Z,101229.53
2023-09-04T21:18:06.706Z,101227.78
2023-09-04T21:21:27.113Z,101221.53
2023-09-04T21:24:47.282Z,101223.84
2023-09-04T21:28:07.671Z,101226.69
2023-09-04T21:31:27.990Z,101232.75
2023-09-04T21:34:48.326Z,101236.03
2023-09-04T21:38:08.520Z,101241.31
2023-09-04T21:41:28.908Z,101234.25
2023-09-04T21:44:49.044Z,101239.38
2023-09-04T21:48:09.363Z,101235.91
2023-09-04T21:51:29.935Z,101233.28
2023-09-04T21:54:50.174Z,101229.81
2023-09-04T21:58:10.441Z,101236.66
2023-09-04T22:01:30.935Z,101239.00
2023-09-04T22:04:51.501Z,101239.78
2023-09-04T22:08:12.008Z,101242.47
2023-09-04T22:11:32.099Z,101243.25
2023-09-04T22:14:52.437Z,101237.16
2023-09-04T22:18:13.178Z,101236.31
2023-09-04T22:21:33.949Z,101234.63
2023-09-04T22:24:54.406Z,101232.00
2023-09-04T22:28:14.624Z,101231.16
2023-09-04T22:31:34.637Z,101227.88
2023-09-04T22:34:54.970Z,101225.09
2023-09-04T22:38:15.427Z,101223.44
2023-09-04T22:41:35.554Z,101228.56
2023-09-04T22:44:55.818Z,101223.97
2023-09-04T22:48:16.189Z,101234.41
2023-09-04T22:51:36.736Z,101229.09
2023-09-04T22:54:56.857Z,101233.47
2023-09-04T22:58:16.948Z,101241.13
2023-09-04T23:01:37.426Z,101237.66
2023-09-04T23:04:57.636Z,101236.09
2023-09-04T23:08:18.028Z,101240.41
2023-09-04T23:11:38.425Z,101235.94
2023-09-04T23:14:58.708Z,101234.81
2023-09-04T23:18:18.956Z,101236.81
2023-09-04T23:21:20.586Z,101227.94
2023-09-04T23:24:23.118Z,101229.53
2023-09-04T23:27:27.789Z,101215.59
2023-09-04T23:30:37.450Z,101218.19
2023-09-04T23:33:46.619Z,101207.34
2023-09-04T23:36:48.624Z,101213.34
2023-09-04T23:40:09.493Z,101216.06
2023-09-04T23:43:29.600Z,101216.06
2023-09-04T23:46:32.488Z,101218.53
2023-09-04T23:49:35.085Z,101219.41
2023-09-04T23:52:37.282Z,101221.16
2023-09-04T23:55:38.965Z,101219.41
2023-09-04T23:58:45.247Z,101220.16
